Time;durP1;ratioP1;P1;durP2;ratioP2;P2;SDS_P1;SDS_P2;PMS_P1;PMS_P2;Temp;Humidity;BMP_temperature;BMP_pressure;BME280_temperature;BME280_humidity;BME280_pressure;Samples;Min_cycle;Max_cycle;Signal;HPM_P1;HPM_P2
2022/03/06 00:00:08;;;;;;;30.33;13.55;;;1.40;99.90;;;;;;5033113;28;20052;-67
2022/03/06 00:03:16;;;;;;;30.95;14.80;;;1.20;99.90;;;;;;5032277;28;20056;-68
2022/03/06 00:06:21;;;;;;;24.73;12.70;;;1.20;99.90;;;;;;5033002;28;20052;-68
2022/03/06 00:09:25;;;;;;;37.50;18.60;;;1.00;99.90;;;;;;5032581;28;20036;-68
2022/03/06 00:12:29;;;;;;;59.38;26.08;;;1.10;99.90;;;;;;5031834;28;20393;-68
2022/03/06 00:15:33;;;;;;;25.60;11.80;;;1.00;99.90;;;;;;5032824;28;20052;-67
2022/03/06 00:18:37;;;;;;;29.65;12.10;;;1.00;99.90;;;;;;5032512;28;20404;-67
2022/03/06 00:21:42;;;;;;;44.70;20.27;;;0.80;99.90;;;;;;5031903;28;20473;-67
2022/03/06 00:24:46;;;;;;;27.63;12.82;;;0.70;99.90;;;;;;5032307;28;20044;-67
2022/03/06 00:27:50;;;;;;;30.90;13.63;;;0.80;99.90;;;;;;5032519;28;20048;-68
2022/03/06 00:30:54;;;;;;;25.65;12.65;;;0.80;99.90;;;;;;5031882;28;20416;-67
2022/03/06 00:33:58;;;;;;;40.25;17.92;;;0.80;99.90;;;;;;5032447;28;20600;-68
2022/03/06 00:37:04;;;;;;;27.33;13.60;;;0.80;99.90;;;;;;5032313;28;20052;-67
2022/03/06 00:40:09;;;;;;;30.80;13.57;;;0.80;99.90;;;;;;5032160;28;20048;-68
2022/03/06 00:43:15;;;;;;;39.88;20.33;;;0.80;99.90;;;;;;5031958;28;20052;-68
2022/03/06 00:46:19;;;;;;;28.10;14.02;;;0.90;99.90;;;;;;5032103;28;20052;-68
2022/03/06 00:49:23;;;;;;;30.73;13.80;;;1.40;99.90;;;;;;5032189;28;20392;-68
2022/03/06 00:52:27;;;;;;;31.13;14.48;;;0.80;99.90;;;;;;5031171;28;20234;-67
2022/03/06 00:55:31;;;;;;;38.45;18.77;;;0.80;99.90;;;;;;5032368;28;20044;-68
2022/03/06 00:58:37;;;;;;;27.08;12.75;;;0.80;99.90;;;;;;5031785;28;20404;-67
2022/03/06 01:01:43;;;;;;;29.98;13.95;;;0.80;99.90;;;;;;5031439;28;20052;-67
2022/03/06 01:04:47;;;;;;;29.73;13.57;;;0.90;99.90;;;;;;5032413;28;20416;-68
2022/03/06 01:07:50;;;;;;;31.40;14.57;;;0.80;99.90;;;;;;5032142;28;20037;-67
2022/03/06 01:10:55;;;;;;;35.33;15.32;;;0.80;99.90;;;;;;5031487;28;20400;-68
2022/03/06 01:13:59;;;;;;;45.30;23.55;;;0.80;99.90;;;;;;5031219;28;20045;-68
2022/03/06 01:17:03;;;;;;;35.95;14.85;;;0.80;99.90;;;;;;5031683;28;20064;-67
2022/03/06 01:20:08;;;;;;;34.70;14.68;;;0.80;99.90;;;;;;5031756;28;20054;-68
2022/03/06 01:23:12;;;;;;;28.50;13.75;;;0.70;99.90;;;;;;5031374;28;20523;-68
2022/03/06 01:26:17;;;;;;;27.00;13.05;;;0.70;99.90;;;;;;5031387;28;20101;-67
2022/03/06 01:29:22;;;;;;;29.38;13.18;;;0.70;99.90;;;;;;5031291;28;20040;-68
2022/03/06 01:32:26;;;;;;;26.85;12.55;;;0.90;99.90;;;;;;5030551;28;20503;-66
2022/03/06 01:35:30;;;;;;;28.90;14.00;;;0.80;99.90;;;;;;5031533;28;20400;-68
2022/03/06 01:38:34;;;;;;;30.88;13.57;;;0.70;99.90;;;;;;5031315;28;20495;-68
2022/03/06 01:41:39;;;;;;;30.35;13.05;;;0.70;99.90;;;;;;5031163;28;20045;-67
2022/03/06 01:44:48;;;;;;;26.23;12.77;;;0.70;99.90;;;;;;5031033;28;20412;-67
2022/03/06 01:47:54;;;;;;;33.75;13.73;;;0.70;99.90;;;;;;5031237;28;20427;-68
2022/03/06 01:50:59;;;;;;;30.23;13.88;;;0.10;99.90;;;;;;5030631;28;20048;-68
2022/03/06 01:54:03;;;;;;;28.52;13.45;;;0.70;99.90;;;;;;5030974;28;20044;-67
2022/03/06 01:57:07;;;;;;;25.92;12.70;;;-0.90;99.90;;;;;;5031130;28;20044;-68
2022/03/06 02:00:14;;;;;;;32.83;14.70;;;0.60;99.90;;;;;;5030848;28;20052;-67
2022/03/06 02:03:20;;;;;;;39.45;16.25;;;0.30;99.90;;;;;;5030744;28;20495;-67
2022/03/06 02:06:25;;;;;;;30.77;14.10;;;0.30;99.90;;;;;;5030696;28;20048;-68
2022/03/06 02:09:29;;;;;;;27.00;13.55;;;0.40;99.90;;;;;;5029882;28;20330;-68
2022/03/06 02:12:33;;;;;;;26.67;13.68;;;0.40;99.90;;;;;;5029764;28;20041;-68
2022/03/06 02:15:38;;;;;;;28.52;13.88;;;0.40;99.90;;;;;;5030410;28;20044;-68
2022/03/06 02:18:42;;;;;;;28.92;13.70;;;0.50;99.90;;;;;;5030471;28;20052;-67
2022/03/06 02:21:49;;;;;;;31.60;14.48;;;0.40;99.90;;;;;;5029841;28;20057;-68
2022/03/06 02:24:53;;;;;;;27.73;13.80;;;1.00;99.90;;;;;;5030234;28;20056;-68
2022/03/06 02:28:00;;;;;;;30.27;12.95;;;0.40;99.90;;;;;;5030329;28;20052;-68
2022/03/06 02:31:05;;;;;;;29.25;13.68;;;0.40;99.90;;;;;;5030057;28;20048;-68
2022/03/06 02:34:10;;;;;;;28.17;12.93;;;0.30;99.90;;;;;;5029801;28;20053;-68
2022/03/06 02:37:15;;;;;;;25.63;12.82;;;0.30;99.90;;;;;;5030520;28;20064;-68
2022/03/06 02:40:21;;;;;;;31.90;14.30;;;0.30;99.90;;;;;;5030239;28;20068;-67
2022/03/06 02:43:25;;;;;;;27.27;12.80;;;;;;;;;;5030248;28;20052;-67
2022/03/06 02:46:30;;;;;;;31.80;14.85;;;0.30;99.90;;;;;;5030268;28;20045;-68
2022/03/06 02:49:35;;;;;;;29.50;13.65;;;-1.90;99.90;;;;;;5030265;28;20048;-68
2022/03/06 02:52:40;;;;;;;27.83;13.63;;;0.20;99.90;;;;;;5029777;28;20049;-68
2022/03/06 02:55:44;;;;;;;30.30;14.95;;;0.30;99.90;;;;;;5030180;28;20055;-68
2022/03/06 02:58:47;;;;;;;26.73;12.35;;;0.20;99.90;;;;;;5030414;28;20064;-68
2022/03/06 03:01:54;;;;;;;30.85;14.05;;;1.20;99.90;;;;;;5029668;28;20040;-68
2022/03/06 03:04:58;;;;;;;32.88;12.82;;;0.30;99.90;;;;;;5029563;28;20048;-68
2022/03/06 03:08:03;;;;;;;30.25;13.38;;;0.10;99.90;;;;;;5029951;28;20052;-68
2022/03/06 03:11:07;;;;;;;31.63;14.40;;;0.00;99.90;;;;;;5029159;28;20048;-68
2022/03/06 03:14:10;;;;;;;29.70;14.43;;;0.00;99.90;;;;;;5029811;28;20052;-68
2022/03/06 03:17:14;;;;;;;26.15;13.73;;;0.00;99.90;;;;;;5029859;28;20055;-68
2022/03/06 03:20:19;;;;;;;29.52;13.27;;;0.30;99.90;;;;;;5029344;28;20051;-68
2022/03/06 03:23:24;;;;;;;29.02;14.10;;;0.30;99.90;;;;;;5029417;28;20049;-68
2022/03/06 03:26:28;;;;;;;29.63;13.18;;;0.00;99.90;;;;;;5029761;28;20045;-68
2022/03/06 03:29:32;;;;;;;35.28;15.52;;;0.20;99.90;;;;;;5029733;28;20044;-68
2022/03/06 03:32:37;;;;;;;30.85;14.68;;;0.20;99.90;;;;;;5029187;28;20040;-68
2022/03/06 03:35:42;;;;;;;36.65;14.88;;;0.10;99.90;;;;;;5029256;28;20511;-68
2022/03/06 03:38:46;;;;;;;34.50;15.82;;;0.00;99.90;;;;;;5031804;28;20416;-68
2022/03/06 03:41:50;;;;;;;32.13;13.73;;;-0.10;99.90;;;;;;5032600;28;20388;-68
2022/03/06 03:44:53;;;;;;;33.28;14.57;;;-0.10;99.90;;;;;;5032654;28;20045;-68
2022/03/06 03:47:58;;;;;;;32.50;15.57;;;-0.20;99.90;;;;;;5033434;28;20049;-68
2022/03/06 03:51:01;;;;;;;32.22;14.75;;;-0.20;99.90;;;;;;5032316;28;20045;-68
2022/03/06 03:54:06;;;;;;;32.90;15.52;;;-0.10;99.90;;;;;;5032956;28;20048;-68
2022/03/06 03:57:10;;;;;;;39.45;16.58;;;-0.20;99.90;;;;;;5033105;28;20036;-68
2022/03/06 04:00:14;;;;;;;30.25;14.93;;;-0.20;99.90;;;;;;5032841;28;20050;-68
2022/03/06 04:03:18;;;;;;;35.17;15.00;;;-0.10;99.90;;;;;;5033013;28;20060;-68
2022/03/06 04:06:22;;;;;;;30.90;14.43;;;-0.10;99.90;;;;;;5032534;28;20048;-68
2022/03/06 04:09:26;;;;;;;33.28;15.25;;;-0.10;99.90;;;;;;5033080;28;20057;-68
2022/03/06 04:12:32;;;;;;;32.28;14.50;;;0.10;99.90;;;;;;5032591;28;20052;-68
2022/03/06 04:15:37;;;;;;;35.97;14.63;;;0.10;99.90;;;;;;5032264;28;20044;-68
2022/03/06 04:18:40;;;;;;;26.85;13.75;;;0.80;99.90;;;;;;5032859;28;20048;-68
2022/03/06 04:21:45;;;;;;;32.17;13.80;;;0.30;99.90;;;;;;5030933;28;20052;-68
2022/03/06 04:24:49;;;;;;;27.63;13.15;;;1.30;99.90;;;;;;5032226;28;20404;-68
2022/03/06 04:27:52;;;;;;;29.55;12.88;;;0.40;99.90;;;;;;5032559;28;20056;-68
2022/03/06 04:30:56;;;;;;;27.17;13.80;;;0.50;99.90;;;;;;5031869;28;20117;-68
2022/03/06 04:34:00;;;;;;;28.80;14.27;;;0.70;99.90;;;;;;5032290;28;20049;-68
2022/03/06 04:37:05;;;;;;;28.38;14.05;;;0.70;99.90;;;;;;5032266;28;20051;-68
2022/03/06 04:40:10;;;;;;;30.98;14.85;;;0.80;99.90;;;;;;5032054;28;20397;-68
2022/03/06 04:43:15;;;;;;;31.42;14.00;;;0.90;99.90;;;;;;5031977;28;20044;-69
2022/03/06 04:46:19;;;;;;;29.27;14.63;;;1.00;99.90;;;;;;5031739;28;20396;-68
2022/03/06 04:49:23;;;;;;;28.35;14.02;;;1.00;99.90;;;;;;5031873;28;20036;-69
2022/03/06 04:52:27;;;;;;;29.33;13.55;;;1.00;99.90;;;;;;5031503;28;20040;-68
2022/03/06 04:55:32;;;;;;;28.02;13.25;;;1.00;99.90;;;;;;5031589;28;20052;-68
2022/03/06 04:58:36;;;;;;;29.23;13.57;;;1.10;99.90;;;;;;5031085;28;20052;-68
2022/03/06 05:01:39;;;;;;;28.48;14.48;;;1.20;99.90;;;;;;5031302;28;20044;-69
2022/03/06 05:04:43;;;;;;;32.08;15.23;;;1.20;99.90;;;;;;5031646;28;20052;-68
2022/03/06 05:07:47;;;;;;;30.38;15.10;;;1.30;99.90;;;;;;5031512;28;20211;-68
2022/03/06 05:10:51;;;;;;;29.33;14.30;;;1.70;99.90;;;;;;5031255;28;20053;-68
2022/03/06 05:13:55;;;;;;;29.50;14.98;;;1.40;99.90;;;;;;5030760;28;20044;-68
2022/03/06 05:17:00;;;;;;;39.05;16.17;;;;;;;;;;5031609;28;20510;-68
2022/03/06 05:20:05;;;;;;;27.95;15.00;;;2.30;99.90;;;;;;5031661;28;20048;-68
2022/03/06 05:23:09;;;;;;;31.27;14.95;;;1.60;99.90;;;;;;5031448;28;20056;-68
2022/03/06 05:26:14;;;;;;;31.23;15.38;;;1.50;99.90;;;;;;5030983;28;20045;-68
2022/03/06 05:29:18;;;;;;;32.63;14.95;;;1.50;99.90;;;;;;5031507;28;20048;-68
2022/03/06 05:32:22;;;;;;;33.33;14.65;;;1.60;99.90;;;;;;5030263;28;20040;-68
2022/03/06 05:35:26;;;;;;;29.17;14.45;;;1.50;99.90;;;;;;5030960;28;20511;-68
2022/03/06 05:38:30;;;;;;;30.42;15.40;;;1.50;99.90;;;;;;5031056;28;20048;-68
2022/03/06 05:41:34;;;;;;;35.70;16.77;;;0.70;99.90;;;;;;5030665;28;20068;-68
2022/03/06 05:44:38;;;;;;;31.15;14.88;;;2.80;99.90;;;;;;5031150;28;20048;-68
2022/03/06 05:47:43;;;;;;;40.33;17.65;;;1.50;99.90;;;;;;5030767;28;20334;-68
2022/03/06 05:50:48;;;;;;;38.22;17.73;;;1.50;99.90;;;;;;5029162;28;20044;-68
2022/03/06 05:53:52;;;;;;;45.35;18.27;;;2.10;99.90;;;;;;5030603;28;20048;-68
2022/03/06 05:56:56;;;;;;;40.00;18.15;;;1.50;99.90;;;;;;5030360;28;20064;-68
2022/03/06 06:00:00;;;;;;;35.65;17.75;;;2.10;99.90;;;;;;5030463;28;20048;-68
2022/03/06 06:03:03;;;;;;;38.20;17.95;;;1.80;99.90;;;;;;5029650;28;20044;-68
2022/03/06 06:06:08;;;;;;;41.95;18.85;;;1.80;99.90;;;;;;5030165;28;20057;-68
2022/03/06 06:09:12;;;;;;;38.80;18.65;;;1.90;99.90;;;;;;5029941;28;20044;-68
2022/03/06 06:12:15;;;;;;;42.25;19.13;;;2.00;99.90;;;;;;5030084;28;20503;-68
2022/03/06 06:15:19;;;;;;;35.28;17.13;;;2.20;99.90;;;;;;5029968;28;20048;-68
2022/03/06 06:18:26;;;;;;;37.83;18.27;;;2.80;99.90;;;;;;5030242;28;20052;-67
2022/03/06 06:21:31;;;;;;;36.08;17.67;;;2.00;99.90;;;;;;5029711;28;20052;-68
2022/03/06 06:24:35;;;;;;;39.15;17.77;;;2.30;99.90;;;;;;5030462;28;20331;-68
2022/03/06 06:27:39;;;;;;;39.83;18.20;;;2.20;99.90;;;;;;5030138;28;20500;-68
2022/03/06 06:30:43;;;;;;;35.80;17.63;;;2.60;99.90;;;;;;5029909;28;20052;-69
2022/03/06 06:33:47;;;;;;;38.35;18.85;;;2.60;99.90;;;;;;5029973;28;20045;-68
2022/03/06 06:36:57;;;;;;;37.85;18.83;;;2.80;99.90;;;;;;5030282;28;20072;-68
2022/03/06 06:40:01;;;;;;;37.70;17.70;;;3.30;99.90;;;;;;5030021;28;20405;-68
2022/03/06 06:43:05;;;;;;;38.55;19.23;;;3.50;99.90;;;;;;5029964;28;20614;-68
2022/03/06 06:46:12;;;;;;;36.83;17.55;;;3.80;99.90;;;;;;5029766;28;20342;-68
2022/03/06 06:49:15;;;;;;;38.92;19.15;;;4.00;99.90;;;;;;5030096;28;20199;-68
2022/03/06 06:52:19;;;;;;;35.95;16.88;;;4.20;99.90;;;;;;5028561;28;20045;-69
2022/03/06 06:55:24;;;;;;;34.00;17.23;;;4.30;99.90;;;;;;5028935;28;20048;-68
2022/03/06 06:58:28;;;;;;;35.83;17.52;;;4.40;99.90;;;;;;5029167;28;20048;-68
2022/03/06 07:01:32;;;;;;;32.72;16.40;;;4.50;99.90;;;;;;5029525;28;20049;-68
2022/03/06 07:04:36;;;;;;;33.65;16.58;;;4.60;99.90;;;;;;5029468;28;20053;-68
2022/03/06 07:07:40;;;;;;;32.70;15.90;;;4.80;99.90;;;;;;5029875;28;20048;-68
2022/03/06 07:10:44;;;;;;;29.58;15.50;;;4.90;99.90;;;;;;5029544;28;20052;-68
2022/03/06 07:13:48;;;;;;;31.02;15.13;;;5.10;99.90;;;;;;5032604;28;20041;-67
2022/03/06 07:16:52;;;;;;;30.65;15.43;;;7.50;99.90;;;;;;5033519;28;20059;-69
2022/03/06 07:19:56;;;;;;;29.15;14.65;;;7.80;99.90;;;;;;5033722;28;20044;-68
2022/03/06 07:23:00;;;;;;;26.63;15.25;;;9.80;99.90;;;;;;5032969;28;20044;-69
2022/03/06 07:26:06;;;;;;;26.83;14.38;;;11.60;97.00;;;;;;5033834;28;20048;-69
2022/03/06 07:29:10;;;;;;;27.73;14.15;;;12.30;94.70;;;;;;5033696;28;20053;-69
2022/03/06 07:32:14;;;;;;;26.45;14.75;;;12.60;93.40;;;;;;5033631;28;20065;-68
2022/03/06 07:35:20;;;;;;;21.52;14.35;;;12.50;92.40;;;;;;5033561;28;20053;-69
2022/03/06 07:38:24;;;;;;;23.83;13.75;;;13.10;92.00;;;;;;5032972;28;20052;-69
2022/03/06 07:41:28;;;;;;;26.92;14.20;;;13.40;90.80;;;;;;5033160;28;20045;-69
2022/03/06 07:44:32;;;;;;;23.75;13.40;;;13.40;90.10;;;;;;5033265;28;20488;-69
2022/03/06 07:47:36;;;;;;;23.65;13.52;;;13.80;90.10;;;;;;5032980;28;20535;-69
2022/03/06 07:50:40;;;;;;;25.35;13.88;;;14.50;86.60;;;;;;5032609;28;20495;-69
2022/03/06 07:53:44;;;;;;;23.95;13.70;;;15.10;85.00;;;;;;5033470;28;20041;-69
2022/03/06 07:56:49;;;;;;;21.67;14.00;;;15.90;82.70;;;;;;5033162;28;20045;-69
2022/03/06 07:59:52;;;;;;;19.85;12.63;;;16.50;79.80;;;;;;5033022;28;20057;-69
2022/03/06 08:02:56;;;;;;;24.95;13.45;;;16.50;78.20;;;;;;5032932;28;20060;-69
2022/03/06 08:06:00;;;;;;;23.17;13.98;;;14.50;79.10;;;;;;5032491;28;20036;-69
2022/03/06 08:09:04;;;;;;;22.52;12.57;;;14.30;80.40;;;;;;5033207;28;20049;-69
2022/03/06 08:12:08;;;;;;;19.92;13.40;;;14.50;81.10;;;;;;5032237;28;20057;-69
2022/03/06 08:15:12;;;;;;;21.90;12.27;;;15.10;80.30;;;;;;5032545;28;20389;-69
2022/03/06 08:18:16;;;;;;;20.30;12.95;;;16.00;78.40;;;;;;5032440;28;20524;-69
2022/03/06 08:21:20;;;;;;;17.52;12.05;;;17.30;76.40;;;;;;5032228;28;20048;-69
2022/03/06 08:24:24;;;;;;;18.55;11.57;;;18.30;73.80;;;;;;5032217;28;20044;-69
2022/03/06 08:27:29;;;;;;;17.13;11.25;;;18.20;72.00;;;;;;5032074;28;20408;-69
2022/03/06 08:30:32;;;;;;;17.88;11.45;;;19.10;70.90;;;;;;5032567;28;20048;-68
2022/03/06 08:33:37;;;;;;;17.63;12.05;;;19.60;69.00;;;;;;5032683;28;20041;-69
2022/03/06 08:36:40;;;;;;;17.25;11.25;;;18.80;68.20;;;;;;5032252;28;20048;-69
2022/03/06 08:39:48;;;;;;;16.13;11.35;;;18.90;68.60;;;;;;5032490;28;20507;-69
2022/03/06 08:42:53;;;;;;;18.05;11.48;;;17.70;67.60;;;;;;5031783;28;20045;-69
2022/03/06 08:45:58;;;;;;;18.45;11.20;;;17.20;71.20;;;;;;5032272;28;20052;-69
2022/03/06 08:49:02;;;;;;;15.25;10.82;;;17.20;65.60;;;;;;5031731;28;20060;-69
2022/03/06 08:52:07;;;;;;;18.27;10.93;;;19.90;67.80;;;;;;5031386;28;20032;-69
2022/03/06 08:55:11;;;;;;;15.02;10.25;;;23.00;60.50;;;;;;5031998;28;20049;-70
2022/03/06 08:58:16;;;;;;;13.27;9.40;;;22.40;60.10;;;;;;5032141;28;20511;-69
2022/03/06 09:01:20;;;;;;;14.45;9.85;;;22.00;57.30;;;;;;5030931;28;20052;-69
2022/03/06 09:04:24;;;;;;;17.98;10.05;;;18.50;58.70;;;;;;5032562;28;20060;-69
2022/03/06 09:07:29;;;;;;;14.18;9.75;;;19.50;59.50;;;;;;5032383;28;20515;-68
2022/03/06 09:10:34;;;;;;;13.82;9.98;;;18.80;59.80;;;;;;5031221;28;20527;-69
2022/03/06 09:13:38;;;;;;;15.00;9.80;;;20.20;58.60;;;;;;5031909;28;20040;-69
2022/03/06 09:16:42;;;;;;;14.98;9.63;;;22.30;59.10;;;;;;5031756;28;20084;-69
2022/03/06 09:19:46;;;;;;;13.25;9.57;;;24.10;57.40;;;;;;5031829;28;20056;-69
2022/03/06 09:22:49;;;;;;;15.13;10.13;;;24.10;56.50;;;;;;5031115;28;20045;-68
2022/03/06 09:25:54;;;;;;;12.52;9.23;;;24.20;55.80;;;;;;5031779;28;20405;-69
2022/03/06 09:28:58;;;;;;;13.75;9.65;;;25.30;54.70;;;;;;5031510;28;20068;-69
2022/03/06 09:32:02;;;;;;;13.73;9.65;;;25.90;53.40;;;;;;5030982;28;20040;-70
2022/03/06 09:35:07;;;;;;;12.85;8.98;;;26.10;53.90;;;;;;5030864;28;20053;-69
2022/03/06 09:38:12;;;;;;;12.25;8.35;;;25.90;50.10;;;;;;5031222;28;20039;-68
2022/03/06 09:41:17;;;;;;;13.27;8.70;;;23.80;50.20;;;;;;5031130;28;20056;-68
2022/03/06 09:44:26;;;;;;;13.00;9.77;;;23.70;50.80;;;;;;5031499;28;20049;-69
2022/03/06 09:47:30;;;;;;;17.95;14.60;;;24.70;50.00;;;;;;5031405;28;20052;-69
2022/03/06 09:50:34;;;;;;;21.83;15.25;;;24.20;49.50;;;;;;5031471;28;20052;-68
2022/03/06 09:53:38;;;;;;;12.23;8.60;;;23.30;50.20;;;;;;5030717;28;20052;-69
2022/03/06 09:56:44;;;;;;;13.45;9.13;;;22.10;51.10;;;;;;5030992;28;20402;-69
2022/03/06 09:59:48;;;;;;;11.20;8.65;;;23.10;50.40;;;;;;5030879;28;20052;-69
2022/03/06 10:03:01;;;;;;;16.10;9.20;;;23.30;50.90;;;;;;5030699;28;20053;-69
2022/03/06 10:06:05;;;;;;;11.13;8.38;;;25.00;49.20;;;;;;5030619;28;20064;-69
2022/03/06 10:09:11;;;;;;;15.95;7.88;;;25.40;50.20;;;;;;5030258;28;20044;-68
2022/03/06 10:12:22;;;;;;;12.07;8.40;;;26.10;48.70;;;;;;5030421;28;20044;-68
2022/03/06 10:15:27;;;;;;;;;;;25.90;47.60;;;;;;5031439;28;20048;-68
2022/03/06 10:18:42;;;;;;;14.60;11.43;;;24.20;47.90;;;;;;5030329;28;19920;-69
2022/03/06 10:21:46;;;;;;;10.20;7.82;;;23.40;49.60;;;;;;5030453;28;20419;-69
2022/03/06 10:24:53;;;;;;;17.27;10.00;;;21.50;50.00;;;;;;5029798;28;20071;-68
2022/03/06 10:27:58;;;;;;;12.82;9.07;;;20.60;53.00;;;;;;5029827;28;20068;-68
2022/03/06 10:31:04;;;;;;;11.30;8.60;;;21.90;49.80;;;;;;5029709;28;20393;-68
2022/03/06 10:34:12;;;;;;;14.43;8.90;;;24.00;48.30;;;;;;5030830;28;20048;-68
2022/03/06 10:37:16;;;;;;;13.85;8.65;;;24.00;48.40;;;;;;5030194;28;20048;-69
2022/03/06 10:40:34;;;;;;;11.32;8.43;;;24.60;48.80;;;;;;5030480;28;20049;-69
2022/03/06 10:43:40;;;;;;;10.80;8.23;;;24.40;47.20;;;;;;5030658;28;20040;-69
2022/03/06 10:47:02;;;;;;;11.30;8.70;;;23.20;48.50;;;;;;5029847;28;20044;-69
2022/03/06 10:50:06;;;;;;;13.82;9.45;;;21.30;49.00;;;;;;5030290;28;20057;-69
2022/03/06 10:53:24;;;;;;;15.02;9.23;;;19.40;51.70;;;;;;5030349;28;20053;-69
2022/03/06 10:56:28;;;;;;;16.08;8.80;;;17.40;53.90;;;;;;5030354;28;20049;-68
2022/03/06 10:59:33;;;;;;;23.23;12.80;;;20.10;51.40;;;;;;5029304;28;20400;-69
2022/03/06 11:02:37;;;;;;;15.75;10.90;;;20.50;51.80;;;;;;5029981;28;20388;-69
2022/03/06 11:05:43;;;;;;;14.23;9.68;;;17.90;51.60;;;;;;5030039;28;20048;-68
2022/03/06 11:08:48;;;;;;;14.50;9.93;;;17.90;52.20;;;;;;5030382;28;20048;-68
2022/03/06 11:11:52;;;;;;;14.98;8.63;;;19.00;52.20;;;;;;5030074;28;20051;-68
2022/03/06 11:14:58;;;;;;;14.75;9.10;;;19.70;50.70;;;;;;5029740;28;20056;-68
2022/03/06 11:18:06;;;;;;;19.27;12.30;;;17.00;53.50;;;;;;5030189;28;20052;-68
2022/03/06 11:21:10;;;;;;;20.08;12.02;;;15.30;56.70;;;;;;5029094;28;20515;-69
2022/03/06 11:24:26;;;;;;;20.50;12.57;;;14.80;56.80;;;;;;5028831;28;20048;-68
2022/03/06 11:28:18;;;;;;;19.23;11.93;;;15.00;57.90;;;;;;5029952;28;20056;-68
2022/03/06 11:31:22;;;;;;;19.17;11.23;;;14.90;58.10;;;;;;5029713;28;20045;-67
2022/03/06 11:34:29;;;;;;;20.23;12.80;;;14.30;57.90;;;;;;5029676;28;20048;-68
2022/03/06 11:37:54;;;;;;;18.92;11.32;;;14.00;57.30;;;;;;5029324;28;20068;-68
2022/03/06 11:41:10;;;;;;;22.45;13.75;;;13.30;58.70;;;;;;5029686;28;20104;-68
2022/03/06 11:44:37;;;;;;;23.20;13.57;;;12.40;59.60;;;;;;5030361;28;20389;-68
2022/03/06 11:47:41;;;;;;;17.95;10.05;;;12.20;61.60;;;;;;5029642;28;20044;-68
2022/03/06 11:51:17;;;;;;;15.70;9.82;;;12.20;61.10;;;;;;5028826;28;20052;-68
2022/03/06 11:54:22;;;;;;;15.95;9.95;;;11.40;60.70;;;;;;5029349;28;20508;-68
2022/03/06 11:57:40;;;;;;;28.70;19.67;;;11.10;62.10;;;;;;5029377;28;20392;-69
2022/03/06 12:00:48;;;;;;;13.90;8.52;;;12.00;61.10;;;;;;5032518;28;20036;-69
2022/03/06 12:04:01;;;;;;;17.42;10.27;;;12.40;61.20;;;;;;5033265;28;20048;-69
2022/03/06 12:07:10;;;;;;;17.25;9.93;;;12.20;61.20;;;;;;5033267;28;20048;-69
2022/03/06 12:10:16;;;;;;;13.70;8.48;;;12.50;61.90;;;;;;5032318;28;20037;-69
2022/03/06 12:13:22;;;;;;;14.32;8.85;;;12.70;61.30;;;;;;5033066;28;20043;-69
2022/03/06 12:16:27;;;;;;;22.35;13.52;;;12.60;60.90;;;;;;5032228;28;20044;-68
2022/03/06 12:19:37;;;;;;;14.45;8.38;;;12.40;61.80;;;;;;5032588;28;20061;-69
2022/03/06 12:22:49;;;;;;;24.98;12.75;;;12.40;63.10;;;;;;5032232;28;20044;-69
2022/03/06 12:25:57;;;;;;;17.95;12.32;;;12.20;62.70;;;;;;5033010;28;20060;-68
2022/03/06 12:29:01;;;;;;;29.60;17.50;;;11.40;62.60;;;;;;5033394;28;20052;-68
2022/03/06 12:32:31;;;;;;;26.63;14.55;;;10.90;64.90;;;;;;5031477;28;20499;-68
2022/03/06 12:35:35;;;;;;;16.58;10.48;;;10.60;65.20;;;;;;5032579;28;20045;-67
2022/03/06 12:38:41;;;;;;;22.58;13.40;;;10.40;65.50;;;;;;5032280;28;20053;-68
2022/03/06 12:41:45;;;;;;;20.80;13.23;;;10.40;66.00;;;;;;5031597;28;20049;-67
2022/03/06 12:44:53;;;;;;;19.00;12.20;;;10.30;65.40;;;;;;5032533;28;20036;-68
2022/03/06 12:47:59;;;;;;;15.55;9.00;;;10.00;65.40;;;;;;5032121;28;20056;-68
2022/03/06 12:51:03;;;;;;;26.90;16.50;;;10.00;65.80;;;;;;5031304;28;20053;-68
2022/03/06 12:54:22;;;;;;;26.40;17.23;;;10.10;66.00;;;;;;5032171;28;20116;-68
2022/03/06 12:57:31;;;;;;;29.95;16.73;;;10.20;67.50;;;;;;5032105;28;20048;-68
2022/03/06 13:00:36;;;;;;;32.67;20.63;;;9.90;67.60;;;;;;5031304;28;20053;-68
2022/03/06 13:03:48;;;;;;;21.75;12.63;;;10.10;69.20;;;;;;5032118;28;20052;-68
2022/03/06 13:06:53;;;;;;;;;;;10.10;69.50;;;;;;5032342;28;20400;-69
2022/03/06 13:10:07;;;;;;;23.40;11.98;;;10.00;70.30;;;;;;5031633;28;20376;-69
2022/03/06 13:13:15;;;;;;;26.58;12.65;;;9.60;71.40;;;;;;5031783;28;20393;-68
2022/03/06 13:16:25;;;;;;;21.63;12.10;;;9.50;71.40;;;;;;5031682;28;20056;-68
2022/03/06 13:19:39;;;;;;;18.83;11.20;;;9.30;72.10;;;;;;5031895;28;20566;-68
2022/03/06 13:22:44;;;;;;;18.83;10.70;;;9.40;72.00;;;;;;5029918;28;20045;-68
2022/03/06 13:25:49;;;;;;;20.13;9.88;;;9.50;71.90;;;;;;5031839;28;20051;-68
2022/03/06 13:28:53;;;;;;;21.17;10.88;;;9.80;71.70;;;;;;5031919;28;20044;-68
2022/03/06 13:31:57;;;;;;;22.23;11.23;;;10.10;69.50;;;;;;5030026;28;20515;-69
2022/03/06 13:35:05;;;;;;;18.35;10.43;;;10.20;70.50;;;;;;5031833;28;20049;-69
2022/03/06 13:38:24;;;;;;;21.85;11.93;;;10.30;70.20;;;;;;5030024;28;20052;-68
2022/03/06 13:41:28;;;;;;;22.50;12.70;;;10.10;69.90;;;;;;5030889;28;20040;-68
2022/03/06 13:44:33;;;;;;;20.05;10.95;;;10.10;71.20;;;;;;5031813;28;20044;-68
2022/03/06 13:47:45;;;;;;;22.13;11.88;;;10.20;71.30;;;;;;5031150;28;20064;-68
2022/03/06 13:50:50;;;;;;;16.85;10.50;;;10.90;70.10;;;;;;5029847;28;20503;-68
2022/03/06 13:54:01;;;;;;;23.13;12.88;;;10.80;69.50;;;;;;5031609;28;20049;-69
2022/03/06 13:57:06;;;;;;;22.83;11.32;;;10.20;70.30;;;;;;5031174;28;20048;-68
2022/03/06 14:00:25;;;;;;;19.13;11.65;;;9.70;71.30;;;;;;5031426;28;20049;-68
2022/03/06 14:03:34;;;;;;;18.67;10.57;;;9.20;73.20;;;;;;5031071;28;20052;-68
2022/03/06 14:06:44;;;;;;;21.85;11.32;;;10.20;75.20;;;;;;5031364;28;20415;-68
2022/03/06 14:09:48;;;;;;;24.23;13.05;;;8.50;74.90;;;;;;5030930;28;20053;-67
2022/03/06 14:12:53;;;;;;;26.48;12.65;;;8.30;75.40;;;;;;5029483;28;20053;-68
2022/03/06 14:16:05;;;;;;;23.08;12.27;;;8.10;75.80;;;;;;5030453;28;20412;-67
2022/03/06 14:19:17;;;;;;;27.33;12.75;;;7.90;75.80;;;;;;5030296;28;20388;-68
2022/03/06 14:22:21;;;;;;;26.65;13.43;;;7.90;76.20;;;;;;5029647;28;20064;-68
2022/03/06 14:25:25;;;;;;;32.70;14.05;;;7.90;76.40;;;;;;5030764;28;20500;-68
2022/03/06 14:28:30;;;;;;;26.73;13.05;;;7.80;76.20;;;;;;5030796;28;20052;-68
2022/03/06 14:31:35;;;;;;;23.95;13.77;;;7.70;75.90;;;;;;5029717;28;20388;-68
2022/03/06 14:34:41;;;;;;;23.80;12.90;;;7.70;75.90;;;;;;5029497;28;20107;-68
2022/03/06 14:37:45;;;;;;;21.42;11.65;;;7.50;76.10;;;;;;5029973;28;20052;-66
2022/03/06 14:40:49;;;;;;;22.13;12.02;;;7.60;76.10;;;;;;5029973;28;20060;-67
2022/03/06 14:43:53;;;;;;;24.88;13.73;;;7.50;75.50;;;;;;5030098;28;20048;-67
2022/03/06 14:46:58;;;;;;;23.77;12.52;;;7.50;75.10;;;;;;5030255;28;20056;-68
2022/03/06 14:50:03;;;;;;;21.50;12.50;;;7.50;75.00;;;;;;5029976;28;20503;-68
2022/03/06 14:53:07;;;;;;;16.85;9.45;;;7.50;74.60;;;;;;5029915;28;20040;-68
2022/03/06 14:56:12;;;;;;;23.00;13.55;;;7.40;74.10;;;;;;5029988;28;20095;-68
2022/03/06 14:59:15;;;;;;;21.05;12.80;;;7.50;74.60;;;;;;5029973;28;20041;-68
2022/03/06 15:02:19;;;;;;;27.45;16.90;;;7.60;74.50;;;;;;5029084;28;20036;-67
2022/03/06 15:05:24;;;;;;;37.50;23.55;;;8.30;73.60;;;;;;5029846;28;20052;-68
2022/03/06 15:08:28;;;;;;;21.38;12.77;;;7.60;72.10;;;;;;5029881;28;20053;-68
2022/03/06 15:11:32;;;;;;;23.42;13.73;;;7.70;72.70;;;;;;5029505;28;20057;-68
2022/03/06 15:14:36;;;;;;;22.00;12.65;;;7.50;73.20;;;;;;5029798;28;20060;-68
2022/03/06 15:17:40;;;;;;;25.98;14.93;;;7.60;73.50;;;;;;5030128;28;20049;-69
2022/03/06 15:20:44;;;;;;;32.85;18.52;;;7.40;73.30;;;;;;5029279;28;20040;-69
2022/03/06 15:23:48;;;;;;;24.00;14.82;;;7.50;73.40;;;;;;5029448;28;20052;-69
2022/03/06 15:26:52;;;;;;;30.30;14.43;;;7.60;73.30;;;;;;5030029;28;20262;-69
2022/03/06 15:29:56;;;;;;;29.27;18.35;;;7.70;72.80;;;;;;5029466;28;20049;-69
2022/03/06 15:33:01;;;;;;;39.60;19.38;;;7.70;73.60;;;;;;5029609;28;20056;-69
2022/03/06 15:36:05;;;;;;;28.77;14.27;;;7.80;74.80;;;;;;5033456;28;20396;-69
2022/03/06 15:39:11;;;;;;;22.48;11.95;;;8.00;74.00;;;;;;5032040;28;20045;-69
2022/03/06 15:42:16;;;;;;;27.42;14.20;;;8.10;74.80;;;;;;5033091;28;20048;-69
2022/03/06 15:45:19;;;;;;;46.33;28.10;;;8.20;75.20;;;;;;5033372;28;20496;-69
2022/03/06 15:48:24;;;;;;;23.85;13.75;;;8.00;75.60;;;;;;5033391;28;20452;-69
2022/03/06 15:51:29;;;;;;;23.83;11.32;;;7.80;76.30;;;;;;5032632;28;20056;-69